Time;durP1;ratioP1;P1;durP2;ratioP2;P2;SDS_P1;SDS_P2;PMS_P1;PMS_P2;Temp;Humidity;BMP_temperature;BMP_pressure;BME280_temperature;BME280_humidity;BME280_pressure;Samples;Min_cycle;Max_cycle;Signal;HPM_P1;HPM_P2
2023/07/22 03:01:34;;;;;;;1.30;1.20;;;26.20;44.00;;;;;;5405392;23;46382;-82
2023/07/22 03:04:00;;;;;;;2.17;1.10;;;26.20;44.00;;;;;;4907878;28;45031;-83
2023/07/22 03:06:26;;;;;;;1.37;1.00;;;26.20;44.00;;;;;;4903280;28;46688;-82
2023/07/22 03:08:53;;;;;;;1.50;1.10;;;26.10;44.00;;;;;;4890047;28;46528;-84
2023/07/22 03:11:19;;;;;;;1.40;1.20;;;26.10;44.00;;;;;;4916184;28;45569;-83
2023/07/22 03:13:44;;;;;;;1.13;1.02;;;26.10;44.00;;;;;;4900669;28;45485;-86
2023/07/22 03:16:10;;;;;;;1.65;1.17;;;26.10;43.90;;;;;;4883854;28;45571;-88
2023/07/22 03:18:35;;;;;;;1.75;1.15;;;26.10;44.00;;;;;;4897133;28;47227;-86
2023/07/22 03:21:01;;;;;;;2.17;1.05;;;26.10;44.00;;;;;;4882627;28;46326;-87
2023/07/22 03:23:27;;;;;;;1.20;0.90;;;26.10;44.00;;;;;;4904234;28;45278;-82
2023/07/22 03:25:52;;;;;;;1.92;1.15;;;26.20;44.00;;;;;;4872279;28;45500;-83
2023/07/22 03:28:18;;;;;;;1.60;1.10;;;26.10;43.90;;;;;;4918359;28;46394;-84
2023/07/22 03:30:43;;;;;;;1.23;1.00;;;26.10;43.90;;;;;;4898263;28;45066;-87
2023/07/22 03:33:09;;;;;;;1.43;1.20;;;26.10;43.90;;;;;;4891961;28;44950;-85
2023/07/22 03:35:35;;;;;;;1.37;1.10;;;26.10;43.90;;;;;;4901402;28;45554;-88
2023/07/22 03:38:01;;;;;;;1.15;1.05;;;26.10;43.90;;;;;;4904001;28;46365;-84
2023/07/22 03:40:30;;;;;;;1.20;0.90;;;26.10;43.90;;;;;;4870675;28;46243;-85
2023/07/22 03:42:56;;;;;;;1.20;1.10;;;26.10;44.00;;;;;;4912535;28;45393;-86
2023/07/22 03:45:22;;;;;;;1.73;1.20;;;26.10;44.00;;;;;;4883674;28;45599;-84
2023/07/22 03:47:59;;;;;;;1.27;1.15;;;26.10;43.90;;;;;;4913381;28;45341;-81
2023/07/22 03:50:25;;;;;;;1.10;1.00;;;26.10;44.00;;;;;;4885998;28;45578;-83
2023/07/22 03:52:51;;;;;;;1.38;0.98;;;26.10;44.00;;;;;;4891126;28;44942;-82
2023/07/22 03:55:18;;;;;;;1.10;1.00;;;26.10;44.00;;;;;;4886944;28;45483;-85
2023/07/22 03:57:44;;;;;;;1.17;1.00;;;26.10;43.90;;;;;;4867396;28;46515;-86
2023/07/22 04:00:10;;;;;;;1.53;1.10;;;26.10;43.90;;;;;;4872957;28;45027;-89
2023/07/22 04:02:36;;;;;;;1.33;0.93;;;26.10;43.90;;;;;;4872871;28;44972;-86
2023/07/22 04:05:01;;;;;;;1.60;1.00;;;26.10;43.90;;;;;;4905221;28;45636;-86
2023/07/22 04:07:27;;;;;;;1.17;1.05;;;26.10;43.90;;;;;;4885301;28;47125;-87
2023/07/22 04:09:52;;;;;;;1.38;1.02;;;26.10;43.90;;;;;;4898505;28;45322;-85
2023/07/22 04:12:18;;;;;;;1.10;1.00;;;26.10;43.90;;;;;;4911893;28;45060;-84
2023/07/22 04:14:43;;;;;;;2.10;1.00;;;26.10;43.90;;;;;;4901762;28;46151;-84
2023/07/22 04:17:09;;;;;;;1.90;1.10;;;26.10;44.00;;;;;;4881375;28;47351;-85
2023/07/22 04:19:34;;;;;;;1.03;0.90;;;26.10;43.90;;;;;;4888018;28;45265;-85
2023/07/22 04:22:03;;;;;;;1.30;1.10;;;26.10;44.00;;;;;;4911687;28;44751;-90
2023/07/22 04:24:31;;;;;;;1.23;0.90;;;26.10;44.00;;;;;;4888478;28;45623;-85
2023/07/22 04:26:56;;;;;;;2.13;1.08;;;26.10;43.90;;;;;;4898071;28;47075;-85
2023/07/22 04:29:22;;;;;;;1.40;1.10;;;26.10;43.90;;;;;;4916967;28;45329;-86
2023/07/22 04:31:48;;;;;;;1.50;1.10;;;26.10;44.00;;;;;;4897006;28;45365;-87
2023/07/22 04:34:13;;;;;;;1.67;0.87;;;26.10;44.00;;;;;;4918150;28;45498;-84
2023/07/22 04:36:39;;;;;;;1.27;1.05;;;26.00;43.90;;;;;;4897369;28;46897;-87
2023/07/22 04:39:07;;;;;;;1.65;1.00;;;26.00;43.90;;;;;;4888649;28;45204;-85
2023/07/22 04:41:33;;;;;;;1.75;1.15;;;26.10;44.00;;;;;;4901304;28;44935;-87
2023/07/22 04:43:59;;;;;;;1.20;1.10;;;26.00;43.90;;;;;;4892940;28;45416;-84
2023/07/22 04:46:28;;;;;;;1.33;0.90;;;26.00;43.60;;;;;;4880426;28;46280;-86
2023/07/22 04:48:55;;;;;;;1.53;1.00;;;26.00;43.90;;;;;;4920033;28;44830;-86
2023/07/22 04:51:20;;;;;;;1.10;1.00;;;26.00;43.90;;;;;;4886069;28;45552;-86
2023/07/22 04:53:46;;;;;;;1.30;1.03;;;26.10;44.00;;;;;;4904396;28;45200;-84
2023/07/22 04:56:11;;;;;;;1.27;1.00;;;26.00;44.00;;;;;;4915715;28;47344;-83
2023/07/22 04:58:37;;;;;;;1.20;1.00;;;26.00;43.90;;;;;;4903014;28;45204;-84
2023/07/22 05:01:02;;;;;;;1.25;0.90;;;26.00;43.90;;;;;;4865097;28;45117;-87
2023/07/22 05:03:28;;;;;;;1.52;0.98;;;26.00;44.00;;;;;;4906335;28;45779;-85
2023/07/22 05:05:53;;;;;;;1.52;1.20;;;26.00;44.00;;;;;;4905655;28;46402;-83
2023/07/22 05:08:19;;;;;;;1.20;1.00;;;26.00;44.00;;;;;;4915985;28;45301;-83
2023/07/22 05:10:45;;;;;;;1.97;1.20;;;26.00;44.00;;;;;;4899854;28;45199;-84
2023/07/22 05:13:10;;;;;;;1.10;1.00;;;26.00;44.00;;;;;;4916927;28;45687;-82
2023/07/22 05:15:36;;;;;;;1.53;0.90;;;26.00;44.00;;;;;;4898033;28;45569;-85
2023/07/22 05:18:01;;;;;;;1.20;1.07;;;26.00;44.00;;;;;;4919611;28;45122;-82
2023/07/22 05:20:27;;;;;;;2.90;1.10;;;26.00;44.00;;;;;;4885765;28;45493;-87
2023/07/22 05:22:53;;;;;;;1.17;1.07;;;26.00;44.00;;;;;;4892064;28;44910;-83
2023/07/22 05:25:18;;;;;;;1.23;1.07;;;26.00;44.00;;;;;;4900051;28;47368;-82
2023/07/22 05:27:44;;;;;;;1.60;1.00;;;26.00;44.00;;;;;;4872906;28;45353;-85
2023/07/22 05:30:10;;;;;;;1.87;1.03;;;26.00;44.10;;;;;;4886086;28;45575;-85
2023/07/22 05:32:36;;;;;;;1.38;1.00;;;26.00;44.00;;;;;;4886590;28;45135;-84
2023/07/22 05:35:05;;;;;;;1.20;0.90;;;26.00;44.00;;;;;;4888557;28;48088;-83
2023/07/22 05:37:31;;;;;;;1.10;0.95;;;26.00;44.00;;;;;;4906273;28;45240;-85
2023/07/22 05:39:56;;;;;;;1.10;1.00;;;26.00;44.10;;;;;;4888656;28;44995;-84
2023/07/22 05:42:22;;;;;;;1.20;1.10;;;26.00;44.00;;;;;;4902882;28;45561;-83
2023/07/22 05:44:48;;;;;;;1.67;1.10;;;26.00;44.00;;;;;;4901034;28;47450;-85
2023/07/22 05:47:14;;;;;;;1.77;1.00;;;26.00;44.10;;;;;;4877151;28;45221;-81
2023/07/22 05:49:39;;;;;;;1.77;1.00;;;26.00;44.10;;;;;;4891651;28;45115;-83
2023/07/22 05:52:05;;;;;;;1.20;1.10;;;26.00;44.10;;;;;;4897682;28;45498;-88
2023/07/22 05:54:31;;;;;;;1.08;1.05;;;26.00;44.10;;;;;;4901202;28;48400;-82
2023/07/22 05:56:56;;;;;;;1.10;1.00;;;26.00;44.10;;;;;;4918049;28;45520;-83
2023/07/22 05:59:22;;;;;;;1.63;1.07;;;26.00;44.10;;;;;;4901647;28;46324;-84
2023/07/22 06:01:47;;;;;;;1.20;1.10;;;26.00;44.10;;;;;;4881174;28;45405;-83
2023/07/22 06:04:13;;;;;;;1.60;1.10;;;26.00;44.10;;;;;;4887236;28;46677;-84
2023/07/22 06:06:38;;;;;;;0.90;0.80;;;26.00;44.10;;;;;;4901423;28;45396;-82
2023/07/22 06:09:04;;;;;;;1.13;1.00;;;26.00;44.10;;;;;;4904480;28;45170;-84
2023/07/22 06:11:30;;;;;;;1.90;1.10;;;26.00;44.10;;;;;;4918689;28;44892;-82
2023/07/22 06:13:55;;;;;;;1.13;0.97;;;26.00;44.10;;;;;;4921705;28;45619;-85
2023/07/22 06:16:21;;;;;;;1.33;1.00;;;26.00;44.10;;;;;;4882543;28;44808;-82
2023/07/22 06:18:48;;;;;;;1.33;1.00;;;26.00;44.10;;;;;;4905782;28;45522;-82
2023/07/22 06:21:13;;;;;;;1.55;1.10;;;25.90;44.10;;;;;;4917718;28;45451;-81
2023/07/22 06:23:39;;;;;;;1.47;0.93;;;25.90;44.10;;;;;;4906192;28;45499;-82
2023/07/22 06:26:04;;;;;;;1.52;1.17;;;25.90;44.10;;;;;;4899703;28;45286;-84
2023/07/22 06:28:30;;;;;;;1.52;1.00;;;26.00;44.20;;;;;;4923054;28;45650;-83
2023/07/22 06:30:55;;;;;;;1.08;0.90;;;25.90;44.10;;;;;;4902897;28;45454;-83
2023/07/22 06:33:21;;;;;;;1.60;1.10;;;26.00;44.20;;;;;;4892702;28;46344;-84
2023/07/22 06:35:47;;;;;;;1.10;1.00;;;25.90;44.20;;;;;;4899240;28;46265;-82
2023/07/22 06:38:12;;;;;;;1.80;1.10;;;25.90;44.40;;;;;;4921400;28;44946;-83
2023/07/22 06:40:38;;;;;;;1.38;0.95;;;25.90;44.10;;;;;;4885525;28;45794;-84
2023/07/22 06:43:05;;;;;;;1.90;1.20;;;25.90;44.80;;;;;;4903340;28;47124;-85
2023/07/22 06:45:31;;;;;;;1.23;0.93;;;26.00;44.20;;;;;;4887256;28;45363;-79
2023/07/22 06:47:57;;;;;;;1.25;0.95;;;25.90;44.20;;;;;;4903387;28;45580;-83
2023/07/22 06:50:23;;;;;;;1.65;1.05;;;25.90;44.20;;;;;;4899831;28;45038;-83
2023/07/22 06:52:49;;;;;;;1.23;1.00;;;26.00;44.30;;;;;;4905451;28;46204;-83
2023/07/22 06:55:14;;;;;;;1.47;1.00;;;25.90;44.20;;;;;;4902378;28;44955;-83
2023/07/22 06:57:40;;;;;;;1.00;0.90;;;25.90;44.20;;;;;;4903386;28;44973;-85
2023/07/22 07:00:12;;;;;;;1.33;1.00;;;25.90;44.20;;;;;;4902737;28;44918;-86
2023/07/22 07:02:37;;;;;;;1.70;1.10;;;25.90;44.20;;;;;;4905287;28;46535;-81
2023/07/22 07:05:06;;;;;;;1.30;1.00;;;25.90;44.30;;;;;;4905964;28;45220;-86
2023/07/22 07:07:32;;;;;;;1.27;1.10;;;25.90;44.20;;;;;;4888348;28;44807;-84
2023/07/22 07:09:58;;;;;;;1.17;0.93;;;25.90;44.30;;;;;;4903509;28;45389;-89
2023/07/22 07:12:23;;;;;;;3.17;1.13;;;25.90;44.30;;;;;;4900355;28;45937;-81
2023/07/22 07:14:53;;;;;;;1.70;1.27;;;25.90;44.30;;;;;;4886496;28;45106;-84
2023/07/22 07:17:18;;;;;;;1.13;0.90;;;25.90;44.30;;;;;;4894336;28;45531;-82
2023/07/22 07:19:44;;;;;;;1.50;1.10;;;25.90;44.30;;;;;;4905845;28;45493;-84
2023/07/22 07:22:10;;;;;;;1.30;1.08;;;25.90;44.30;;;;;;4898656;28;45378;-83
2023/07/22 07:24:35;;;;;;;1.33;1.02;;;25.90;44.30;;;;;;4871229;28;45071;-85
2023/07/22 07:27:01;;;;;;;1.10;1.00;;;25.90;44.30;;;;;;4900966;28;45259;-84
2023/07/22 07:29:26;;;;;;;1.40;1.20;;;25.90;44.40;;;;;;4919313;28;44774;-83
2023/07/22 07:31:52;;;;;;;1.15;0.90;;;25.90;44.30;;;;;;4868891;28;47236;-84
2023/07/22 07:34:17;;;;;;;1.60;1.10;;;25.80;44.30;;;;;;4905940;28;44961;-84
2023/07/22 07:36:43;;;;;;;2.27;1.00;;;25.90;44.30;;;;;;4885531;28;44769;-83
2023/07/22 07:39:08;;;;;;;1.80;1.03;;;25.90;44.40;;;;;;4884758;28;45265;-84
2023/07/22 07:41:34;;;;;;;1.50;1.17;;;25.80;44.30;;;;;;4920671;28;46631;-81
2023/07/22 07:44:00;;;;;;;1.90;1.00;;;25.80;44.30;;;;;;4873617;28;45946;-85
2023/07/22 07:46:27;;;;;;;1.10;0.83;;;25.90;44.40;;;;;;4864661;28;45290;-85
2023/07/22 07:48:54;;;;;;;1.20;1.10;;;25.80;44.40;;;;;;4882502;28;45460;-85
2023/07/22 07:51:20;;;;;;;1.27;1.02;;;25.90;44.40;;;;;;4902787;28;47099;-83
2023/07/22 07:53:46;;;;;;;1.42;1.00;;;25.80;44.30;;;;;;4900566;28;44671;-82
2023/07/22 07:56:12;;;;;;;1.20;1.00;;;25.90;44.50;;;;;;4895789;28;45686;-83
2023/07/22 07:58:38;;;;;;;1.80;1.17;;;25.80;44.40;;;;;;4915035;28;45846;-87
2023/07/22 08:01:04;;;;;;;1.80;1.03;;;25.80;44.40;;;;;;4914328;28;46206;-84
2023/07/22 08:03:29;;;;;;;1.42;1.00;;;25.80;44.40;;;;;;4917121;28;45231;-83
2023/07/22 08:05:55;;;;;;;1.35;1.13;;;25.90;44.50;;;;;;4897600;28;45162;-85
2023/07/22 08:08:21;;;;;;;1.40;1.07;;;25.90;44.50;;;;;;4891374;28;45342;-84
2023/07/22 08:10:48;;;;;;;1.63;1.10;;;25.80;44.40;;;;;;4885948;28;47149;-82
2023/07/22 08:13:15;;;;;;;1.08;0.95;;;25.80;44.40;;;;;;4904316;28;63697;-88
2023/07/22 08:15:41;;;;;;;1.10;1.00;;;25.80;44.40;;;;;;4899444;28;45264;-83
2023/07/22 08:18:07;;;;;;;1.30;1.15;;;25.80;44.50;;;;;;4890024;28;45209;-83
2023/07/22 08:20:32;;;;;;;1.00;0.90;;;25.80;44.40;;;;;;4915909;28;46122;-81
2023/07/22 08:22:58;;;;;;;2.30;1.10;;;25.80;44.50;;;;;;4878500;28;45334;-83
2023/07/22 08:25:24;;;;;;;1.38;1.00;;;25.90;44.50;;;;;;4902580;28;45246;-83
2023/07/22 08:27:49;;;;;;;1.40;0.90;;;25.80;44.50;;;;;;4903240;28;45683;-82
2023/07/22 08:30:15;;;;;;;1.17;1.07;;;25.80;44.50;;;;;;4900775;28;46879;-83
2023/07/22 08:32:40;;;;;;;1.30;1.03;;;25.80;44.50;;;;;;4868157;28;45360;-84
2023/07/22 08:35:06;;;;;;;1.33;1.23;;;25.80;44.50;;;;;;4885771;28;45384;-81
2023/07/22 08:37:32;;;;;;;1.30;1.10;;;25.80;44.50;;;;;;4915357;28;45149;-85
2023/07/22 08:39:58;;;;;;;1.60;1.20;;;25.80;44.60;;;;;;4871871;28;47134;-85
2023/07/22 08:42:24;;;;;;;1.45;1.02;;;25.80;44.50;;;;;;4900254;28;45256;-84
2023/07/22 08:44:49;;;;;;;1.95;1.20;;;25.80;44.50;;;;;;4901937;28;45019;-80
2023/07/22 08:47:15;;;;;;;1.10;0.90;;;25.80;44.50;;;;;;4894478;28;45233;-86
2023/07/22 08:49:46;;;;;;;1.70;1.17;;;25.80;44.60;;;;;;4902466;28;47722;-82
2023/07/22 08:52:13;;;;;;;1.17;1.08;;;25.80;44.50;;;;;;4885809;28;45596;-81
2023/07/22 08:54:39;;;;;;;1.20;1.02;;;25.80;45.10;;;;;;4899520;28;45504;-84
2023/07/22 08:57:06;;;;;;;1.02;0.80;;;25.80;44.60;;;;;;4884074;28;44993;-83
2023/07/22 08:59:32;;;;;;;1.00;0.90;;;25.80;44.60;;;;;;4916777;28;45514;-84
2023/07/22 09:01:58;;;;;;;1.38;1.27;;;25.80;44.60;;;;;;4875163;28;45429;-87
2023/07/22 09:04:23;;;;;;;1.40;1.10;;;25.90;44.60;;;;;;4899806;28;45446;-83
2023/07/22 09:06:49;;;;;;;1.30;1.13;;;25.80;44.60;;;;;;4895937;28;45383;-83
2023/07/22 09:09:15;;;;;;;0.90;0.90;;;25.80;44.60;;;;;;4900730;28;47013;-83
2023/07/22 09:11:41;;;;;;;1.40;1.10;;;25.80;44.60;;;;;;4911827;28;45535;-84
2023/07/22 09:14:06;;;;;;;1.40;1.20;;;25.80;44.60;;;;;;4891716;28;45369;-85
2023/07/22 09:16:32;;;;;;;1.70;1.20;;;25.80;44.60;;;;;;4882831;28;45178;-84
2023/07/22 09:18:57;;;;;;;1.77;1.20;;;25.80;44.60;;;;;;4919249;28;46504;-84
2023/07/22 09:21:23;;;;;;;1.30;1.20;;;25.80;44.60;;;;;;4897148;28;44872;-84
2023/07/22 09:23:49;;;;;;;1.27;1.17;;;25.80;44.60;;;;;;4886667;28;45320;-81
2023/07/22 09:26:16;;;;;;;1.33;1.03;;;25.80;44.60;;;;;;4883577;28;45337;-84
2023/07/22 09:28:49;;;;;;;1.42;1.20;;;25.80;44.60;;;;;;4872392;28;46909;-84
2023/07/22 09:31:14;;;;;;;1.63;1.30;;;25.80;44.60;;;;;;4911188;28;44694;-85
2023/07/22 09:33:40;;;;;;;1.30;1.20;;;25.80;44.60;;;;;;4917156;28;45262;-82
2023/07/22 09:36:05;;;;;;;1.50;1.30;;;25.80;44.60;;;;;;4882070;28;45936;-83
2023/07/22 09:38:31;;;;;;;1.67;1.17;;;25.80;44.60;;;;;;4902413;28;47257;-83
2023/07/22 09:40:56;;;;;;;1.20;1.07;;;25.80;44.60;;;;;;4890500;28;45331;-84
2023/07/22 09:43:23;;;;;;;1.60;1.13;;;25.80;45.00;;;;;;4911154;28;45268;-83
2023/07/22 09:45:48;;;;;;;1.27;1.17;;;25.80;44.60;;;;;;4916701;28;45369;-85
2023/07/22 09:48:14;;;;;;;1.30;1.20;;;25.80;44.60;;;;;;4905249;28;45595;-83
2023/07/22 09:50:40;;;;;;;1.30;1.20;;;25.80;44.60;;;;;;4900998;28;45640;-84
2023/07/22 09:53:06;;;;;;;1.27;1.17;;;25.80;44.60;;;;;;4905386;28;45238;-86
2023/07/22 09:55:32;;;;;;;1.23;1.10;;;25.80;44.60;;;;;;4902501;28;45617;-83
2023/07/22 09:58:09;;;;;;;1.60;1.37;;;25.80;44.60;;;;;;4904883;28;46100;-82
2023/07/22 10:00:35;;;;;;;1.30;1.20;;;25.80;44.60;;;;;;4885220;28;45176;-85
2023/07/22 10:03:02;;;;;;;1.92;1.40;;;25.80;44.60;;;;;;4904629;28;45736;-85
2023/07/22 10:05:29;;;;;;;1.33;1.23;;;25.80;44.60;;;;;;4902691;28;45761;-86
2023/07/22 10:07:56;;;;;;;1.40;1.30;;;25.80;44.60;;;;;;4908733;28;45772;-84
2023/07/22 10:10:35;;;;;;;1.40;1.27;;;25.80;44.60;;;;;;4914102;28;45396;-83
2023/07/22 10:13:02;;;;;;;1.30;1.20;;;25.80;44.60;;;;;;4905317;28;45953;-84
2023/07/22 10:15:33;;;;;;;1.30;1.20;;;25.80;44.60;;;;;;4920762;28;44995;-90
2023/07/22 10:17:58;;;;;;;1.30;1.20;;;25.80;44.60;;;;;;4908111;28;46138;-86
2023/07/22 10:20:24;;;;;;;1.42;1.33;;;25.80;44.60;;;;;;4909579;28;45255;-83
2023/07/22 10:22:50;;;;;;;1.48;1.38;;;25.80;44.60;;;;;;4906229;28;44920;-83
2023/07/22 10:25:16;;;;;;;1.30;1.17;;;25.80;44.60;;;;;;4915357;28;45417;-86
2023/07/22 10:27:42;;;;;;;1.50;1.40;;;25.80;44.60;;;;;;4886845;28;46634;-87
2023/07/22 10:30:13;;;;;;;1.38;1.25;;;25.80;44.60;;;;;;4886939;28;45065;-85
2023/07/22 10:32:40;;;;;;;1.50;1.40;;;25.80;44.60;;;;;;4900504;28;45636;-82
2023/07/22 10:35:16;;;;;;;1.63;1.40;;;25.80;44.60;;;;;;4919102;28;46387;-88
2023/07/22 10:37:44;;;;;;;1.42;1.33;;;25.80;44.60;;;;;;4921191;28;47542;-83
2023/07/22 10:40:25;;;;;;;1.40;1.30;;;25.80;44.60;;;;;;4901602;28;44675;-84
2023/07/22 10:42:54;;;;;;;1.40;1.30;;;25.80;44.60;;;;;;4923936;28;44650;-82
2023/07/22 10:45:29;;;;;;;1.98;1.35;;;25.80;44.60;;;;;;4889335;28;45536;-83
2023/07/22 10:48:08;;;;;;;1.42;1.33;;;25.80;44.60;;;;;;4896079;28;45504;-84
2023/07/22 10:50:44;;;;;;;1.52;1.42;;;25.80;44.60;;;;;;4902105;28;45163;-83
2023/07/22 10:53:14;;;;;;;1.53;1.40;;;25.80;44.60;;;;;;4905297;28;45233;-85
2023/07/22 10:56:05;;;;;;;1.47;1.37;;;25.80;44.60;;;;;;4902462;28;45325;-82
2023/07/22 10:58:51;;;;;;;1.30;1.20;;;25.80;44.60;;;;;;4908534;28;45920;-83
2023/07/22 11:01:28;;;;;;;1.75;1.30;;;25.80;44.60;;;;;;4906700;28;45575;-83
2023/07/22 11:04:20;;;;;;;1.30;1.20;;;25.80;44.60;;;;;;4903311;28;44991;-84
2023/07/22 11:06:49;;;;;;;1.50;1.40;;;25.80;44.60;;;;;;4876366;28;45166;-81
2023/07/22 11:09:27;;;;;;;1.40;1.30;;;25.80;44.60;;;;;;4937191;28;45682;-83
2023/07/22 11:12:13;;;;;;;1.48;1.30;;;25.80;44.60;;;;;;4935487;28;45282;-84
2023/07/22 11:14:39;;;;;;;1.47;1.23;;;25.80;44.60;;;;;;4925386;28;44849;-82
2023/07/22 11:17:05;;;;;;;2.58;1.50;;;25.80;44.70;;;;;;4919407;28;45781;-82
2023/07/22 11:19:32;;;;;;;1.50;1.40;;;25.80;44.60;;;;;;4888139;28;47251;-92
2023/07/22 11:21:57;;;;;;;1.63;1.40;;;25.80;44.60;;;;;;4905343;28;45270;-80
2023/07/22 11:24:23;;;;;;;1.70;1.40;;;25.80;44.60;;;;;;4897080;28;45092;-81
2023/07/22 11:26:49;;;;;;;1.40;1.30;;;25.80;44.60;;;;;;4904559;28;44854;-80
2023/07/22 11:29:15;;;;;;;1.40;1.30;;;25.80;44.60;;;;;;4892187;28;46953;-85
2023/07/22 11:31:42;;;;;;;1.35;1.25;;;25.80;44.60;;;;;;4870403;28;45622;-84
2023/07/22 11:34:34;;;;;;;1.60;1.33;;;25.80;44.60;;;;;;4909065;28;45199;-84
2023/07/22 11:37:00;;;;;;;1.42;1.30;;;25.80;44.70;;;;;;4898029;28;45419;-84
2023/07/22 11:39:26;;;;;;;2.47;1.30;;;25.80;44.70;;;;;;4891024;28;47482;-82
2023/07/22 11:41:52;;;;;;;1.40;1.30;;;25.80;44.60;;;;;;4887770;28;45029;-83
2023/07/22 11:44:20;;;;;;;1.60;1.50;;;25.80;44.60;;;;;;4907179;28;45207;-84
2023/07/22 11:46:54;;;;;;;1.60;1.50;;;25.80;44.70;;;;;;4901807;28;46488;-82
2023/07/22 11:49:27;;;;;;;1.40;1.30;;;25.80;44.60;;;;;;4907162;28;45458;-84
2023/07/22 11:52:04;;;;;;;1.70;1.50;;;25.80;45.30;;;;;;4884373;28;45496;-81
2023/07/22 11:54:31;;;;;;;1.30;1.20;;;25.80;44.70;;;;;;4876348;28;45501;-84
2023/07/22 11:56:57;;;;;;;1.40;1.30;;;25.80;44.60;;;;;;4903362;28;45544;-83
2023/07/22 11:59:53;;;;;;;2.70;1.50;;;25.80;44.60;;;;;;4906862;28;45453;-83
2023/07/22 12:02:20;;;;;;;1.40;1.30;;;25.80;44.70;;;;;;4893197;28;45204;-84
2023/07/22 12:04:55;;;;;;;1.55;1.45;;;25.80;44.70;;;;;;4892874;28;44917;-84
2023/07/22 12:07:30;;;;;;;1.58;1.48;;;25.80;44.70;;;;;;4922823;28;45601;-83
2023/07/22 12:09:58;;;;;;;1.70;1.43;;;25.80;44.70;;;;;;4920317;28;46163;-83
2023/07/22 12:12:44;;;;;;;1.35;1.25;;;25.80;44.70;;;;;;4915710;28;44715;-85
2023/07/22 12:15:19;;;;;;;1.75;1.40;;;25.80;44.60;;;;;;4907789;28;46201;-85
2023/07/22 12:17:55;;;;;;;1.80;1.53;;;25.80;45.20;;;;;;4905492;28;45573;-83
2023/07/22 12:20:28;;;;;;;1.48;1.35;;;25.80;44.70;;;;;;4922845;28;45500;-84
2023/07/22 12:22:54;;;;;;;1.52;1.42;;;25.80;44.60;;;;;;4875171;28;45640;-83
2023/07/22 12:25:20;;;;;;;1.65;1.55;;;25.80;44.70;;;;;;4903951;28;45818;-82
2023/07/22 12:27:45;;;;;;;1.57;1.40;;;25.80;44.70;;;;;;4887505;28;45167;-85
2023/07/22 12:30:11;;;;;;;2.90;1.47;;;25.80;44.70;;;;;;4876873;28;47115;-83
2023/07/22 12:32:37;;;;;;;1.57;1.47;;;25.80;44.70;;;;;;4903469;28;45218;-86
2023/07/22 12:35:06;;;;;;;1.77;1.60;;;25.80;44.70;;;;;;4905462;28;45039;-89
2023/07/22 12:37:32;;;;;;;1.77;1.50;;;25.80;44.70;;;;;;4919037;28;44818;-84
2023/07/22 12:39:57;;;;;;;1.73;1.60;;;25.80;44.70;;;;;;4904544;28;47028;-81
2023/07/22 12:42:23;;;;;;;1.80;1.60;;;25.80;44.70;;;;;;4875460;28;45129;-83
2023/07/22 12:44:48;;;;;;;1.70;1.60;;;25.80;44.70;;;;;;4924583;28;45633;-82
2023/07/22 12:47:14;;;;;;;1.90;1.42;;;25.80;44.70;;;;;;4913766;28;44661;-83
2023/07/22 12:49:40;;;;;;;2.20;1.30;;;25.80;44.70;;;;;;4903236;28;46488;-82
2023/07/22 12:52:08;;;;;;;2.30;1.90;;;25.80;44.70;;;;;;4886247;28;45311;-83
2023/07/22 12:54:40;;;;;;;1.70;1.60;;;25.80;44.70;;;;;;4905255;28;45593;-83
2023/07/22 12:57:05;;;;;;;1.95;1.40;;;25.80;44.70;;;;;;4921440;28;45520;-85
2023/07/22 12:59:31;;;;;;;1.70;1.40;;;25.80;44.70;;;;;;4926936;28;46559;-81
2023/07/22 13:01:57;;;;;;;3.50;1.63;;;25.80;44.70;;;;;;4913017;28;45482;-83
2023/07/22 13:04:23;;;;;;;1.70;1.60;;;25.80;44.70;;;;;;4911704;28;45410;-82
2023/07/22 13:06:51;;;;;;;3.10;1.80;;;25.80;44.70;;;;;;4910466;28;45241;-83
2023/07/22 13:09:17;;;;;;;1.50;1.30;;;25.80;44.70;;;;;;4890177;28;47341;-82
2023/07/22 13:11:43;;;;;;;2.42;1.60;;;25.80;44.70;;;;;;4917339;28;45104;-82
2023/07/22 13:14:08;;;;;;;2.00;1.40;;;25.80;44.70;;;;;;4902518;28;45632;-84
2023/07/22 13:16:34;;;;;;;1.73;1.58;;;25.80;44.60;;;;;;4916551;28;45664;-80
2023/07/22 13:19:00;;;;;;;1.85;1.40;;;25.80;44.60;;;;;;4911442;28;47073;-84
2023/07/22 13:21:26;;;;;;;1.88;1.50;;;25.80;44.60;;;;;;4908745;28;45253;-82
2023/07/22 13:23:52;;;;;;;1.85;1.58;;;25.80;44.60;;;;;;4905696;28;45176;-83
2023/07/22 13:26:17;;;;;;;2.00;1.50;;;25.80;44.60;;;;;;4911035;28;45526;-86
2023/07/22 13:28:43;;;;;;;2.10;1.50;;;25.80;44.60;;;;;;4900734;28;47409;-86
2023/07/22 13:31:09;;;;;;;2.35;1.40;;;25.80;44.60;;;;;;4895931;28;45051;-82
2023/07/22 13:33:34;;;;;;;1.42;1.33;;;25.80;44.60;;;;;;4919399;28;45363;-85
2023/07/22 13:36:00;;;;;;;1.77;1.40;;;25.80;44.60;;;;;;4928517;28;45012;-83
2023/07/22 13:38:25;;;;;;;2.20;1.40;;;25.80;44.60;;;;;;4897880;28;45394;-84
2023/07/22 13:40:51;;;;;;;1.95;1.42;;;25.80;44.60;;;;;;4908105;28;45449;-80
2023/07/22 13:43:17;;;;;;;1.60;1.50;;;25.80;44.60;;;;;;4925426;28;45368;-81
2023/07/22 13:45:42;;;;;;;2.40;1.60;;;25.80;44.60;;;;;;4875124;28;45474;-86
2023/07/22 13:48:08;;;;;;;1.70;1.60;;;25.80;44.60;;;;;;4927771;28;45745;-84
2023/07/22 13:50:33;;;;;;;1.53;1.43;;;25.80;45.20;;;;;;4907771;28;44859;-81
2023/07/22 13:52:59;;;;;;;2.13;1.53;;;25.80;44.60;;;;;;4904948;28;45365;-85
2023/07/22 13:55:24;;;;;;;1.60;1.42;;;25.80;44.60;;;;;;4908965;28;45076;-84
2023/07/22 13:57:50;;;;;;;2.15;1.30;;;25.80;44.60;;;;;;4891399;28;46875;-82
2023/07/22 14:00:16;;;;;;;1.60;1.50;;;25.80;44.60;;;;;;4888570;28;45332;-81
2023/07/22 14:02:42;;;;;;;1.30;1.20;;;25.80;44.60;;;;;;4908563;28;44968;-83
2023/07/22 14:05:08;;;;;;;1.85;1.45;;;25.80;44.50;;;;;;4892644;28;45223;-83
2023/07/22 14:07:35;;;;;;;1.90;1.33;;;25.80;44.60;;;;;;4882348;28;46163;-81
2023/07/22 14:10:00;;;;;;;2.42;1.48;;;25.80;44.60;;;;;;4925057;28;45273;-84
2023/07/22 14:12:26;;;;;;;2.30;1.40;;;25.80;44.60;;;;;;4891160;28;44839;-81
2023/07/22 14:14:51;;;;;;;1.60;1.30;;;25.80;44.60;;;;;;4911694;28;45211;-81
2023/07/22 14:17:17;;;;;;;1.77;1.30;;;25.80;44.60;;;;;;4900534;28;45985;-82
2023/07/22 14:19:43;;;;;;;1.60;1.38;;;25.80;44.60;;;;;;4904054;28;45825;-87
2023/07/22 14:22:08;;;;;;;1.50;1.40;;;25.80;44.60;;;;;;4924784;28;45301;-81
2023/07/22 14:24:34;;;;;;;1.80;1.35;;;25.80;45.10;;;;;;4880312;28;45692;-82
2023/07/22 14:27:00;;;;;;;2.28;1.35;;;25.90;44.60;;;;;;4918255;28;46392;-81
2023/07/22 14:29:25;;;;;;;2.58;1.52;;;25.80;44.60;;;;;;4892003;28;44778;-81
2023/07/22 14:31:51;;;;;;;1.60;1.30;;;25.80;44.50;;;;;;4884634;28;45242;-80
2023/07/22 14:34:17;;;;;;;1.70;1.40;;;25.80;44.50;;;;;;4906204;28;44842;-82
2023/07/22 14:36:43;;;;;;;2.10;1.30;;;25.80;44.50;;;;;;4901668;28;47431;-83
2023/07/22 14:39:09;;;;;;;2.60;1.50;;;25.80;44.50;;;;;;4906605;28;45680;-81
2023/07/22 14:41:34;;;;;;;1.40;1.30;;;25.80;44.50;;;;;;4904764;28;45412;-82
2023/07/22 14:44:00;;;;;;;2.20;1.20;;;25.90;44.60;;;;;;4907739;28;45368;-80
2023/07/22 14:46:26;;;;;;;1.70;1.47;;;25.90;44.50;;;;;;4907029;28;45563;-79
2023/07/22 14:48:51;;;;;;;2.27;1.40;;;25.80;44.50;;;;;;4895067;28;45387;-81
2023/07/22 14:51:17;;;;;;;1.53;1.30;;;25.80;44.50;;;;;;4906224;28;45281;-81
2023/07/22 14:53:42;;;;;;;2.35;1.38;;;25.90;44.50;;;;;;4908810;28;45310;-81
2023/07/22 14:56:08;;;;;;;1.27;1.05;;;25.90;44.50;;;;;;4901078;28;47147;-81
2023/07/22 14:58:34;;;;;;;1.83;1.20;;;25.80;44.40;;;;;;4908303;28;45045;-81
2023/07/22 15:00:59;;;;;;;1.40;1.20;;;25.80;44.50;;;;;;4897000;28;45236;-83
2023/07/22 15:03:25;;;;;;;1.35;1.25;;;25.90;44.50;;;;;;4905897;28;44998;-82
2023/07/22 15:05:50;;;;;;;2.13;1.35;;;25.90;44.50;;;;;;4919128;28;46487;-84
2023/07/22 15:08:16;;;;;;;1.48;1.30;;;25.80;44.40;;;;;;4909406;28;45290;-79
2023/07/22 15:10:41;;;;;;;1.37;1.27;;;25.80;44.40;;;;;;4912586;28;45235;-81
2023/07/22 15:13:07;;;;;;;1.60;1.40;;;25.80;44.40;;;;;;4888465;28;45670;-81
2023/07/22 15:15:32;;;;;;;1.80;1.30;;;25.90;44.50;;;;;;4889035;28;48439;-81
2023/07/22 15:17:58;;;;;;;1.40;1.30;;;25.80;44.40;;;;;;4894653;28;44921;-81
2023/07/22 15:20:24;;;;;;;1.67;1.30;;;25.90;44.50;;;;;;4902867;28;45434;-81
2023/07/22 15:22:49;;;;;;;1.40;1.20;;;25.80;44.40;;;;;;4904219;28;45452;-82
2023/07/22 15:25:15;;;;;;;1.20;1.10;;;25.80;44.40;;;;;;4883782;28;46993;-83
2023/07/22 15:27:40;;;;;;;1.67;1.30;;;25.80;44.40;;;;;;4911454;28;45298;-83
2023/07/22 15:30:07;;;;;;;1.50;1.13;;;25.80;44.40;;;;;;4905124;28;44963;-87
2023/07/22 15:32:32;;;;;;;1.40;1.30;;;25.90;44.50;;;;;;4887958;28;45576;-81
2023/07/22 15:34:58;;;;;;;1.30;1.17;;;25.90;44.50;;;;;;4906661;28;45658;-83
2023/07/22 15:37:24;;;;;;;1.30;1.10;;;25.80;44.40;;;;;;4915294;28;44908;-83
2023/07/22 15:39:50;;;;;;;1.63;1.23;;;25.90;44.50;;;;;;4909451;28;45515;-79
2023/07/22 15:42:16;;;;;;;1.30;1.10;;;25.90;44.50;;;;;;4890188;28;44903;-80
2023/07/22 15:44:42;;;;;;;1.38;1.27;;;25.90;44.50;;;;;;4886757;28;48202;-80
2023/07/22 15:47:07;;;;;;;2.03;1.40;;;25.80;44.40;;;;;;4898288;28;45647;-82